createdAt,value
2019-04-21T00:00:29.710Z,15.67
2019-04-21T00:03:07.336Z,14.40
2019-04-21T00:05:52.654Z,16.67
2019-04-21T00:08:25.468Z,16.63
2019-04-21T00:10:58.846Z,19.00
2019-04-21T00:13:18.526Z,14.07
2019-04-21T00:15:40.724Z,14.67
2019-04-21T00:18:19.108Z,17.10
2019-04-21T00:20:52.676Z,19.10
2019-04-21T00:23:39.645Z,18.57
2019-04-21T00:26:01.463Z,17.37
2019-04-21T00:28:42.798Z,18.00
2019-04-21T00:31:12.702Z,15.43
2019-04-21T00:33:29.950Z,16.93
2019-04-21T00:36:05.323Z,15.80
2019-04-21T00:39:03.144Z,17.17
2019-04-21T00:41:23.577Z,18.83
2019-04-21T00:43:46.101Z,17.63
2019-04-21T00:46:08.474Z,20.00
2019-04-21T00:48:55.032Z,17.67
2019-04-21T00:51:49.784Z,17.63
2019-04-21T00:54:06.905Z,18.23
2019-04-21T00:56:27.625Z,19.30
2019-04-21T00:59:00.643Z,18.50
2019-04-21T01:01:31.437Z,19.07
2019-04-21T01:04:04.375Z,16.93
2019-04-21T01:06:35.229Z,15.70
2019-04-21T01:09:02.645Z,18.43
2019-04-21T01:11:35.102Z,18.73
2019-04-21T01:14:05.177Z,17.17
2019-04-21T01:16:39.292Z,19.13
2019-04-21T01:19:05.282Z,21.43
2019-04-21T01:21:18.510Z,22.70
2019-04-21T01:23:48.660Z,20.03
2019-04-21T01:26:30.769Z,19.90
2019-04-21T01:29:10.501Z,21.40
2019-04-21T01:31:37.578Z,20.70
2019-04-21T01:34:15.094Z,18.47
2019-04-21T01:36:38.857Z,16.57
2019-04-21T01:39:35.346Z,20.87
2019-04-21T01:41:49.164Z,18.17
2019-04-21T01:44:22.473Z,18.83
2019-04-21T01:46:45.909Z,24.57
2019-04-21T01:49:13.065Z,21.63
2019-04-21T01:52:02.770Z,23.53
2019-04-21T01:54:42.754Z,22.17
2019-04-21T01:57:17.774Z,22.10
2019-04-21T01:59:42.568Z,19.93
2019-04-21T02:02:18.832Z,17.37
2019-04-21T02:04:55.793Z,21.13
2019-04-21T02:07:20.600Z,21.13
2019-04-21T02:10:00.806Z,20.13
2019-04-21T02:12:25.467Z,18.70
2019-04-21T02:15:17.153Z,19.77
2019-04-21T02:17:30.553Z,19.50
2019-04-21T02:19:59.062Z,19.47
2019-04-21T02:22:35.248Z,17.47
2019-04-21T02:25:01.087Z,17.27
2019-04-21T02:27:31.127Z,20.03
2019-04-21T02:30:10.227Z,15.80
2019-04-21T02:32:48.043Z,19.87
2019-04-21T02:35:25.567Z,20.43
2019-04-21T02:37:55.561Z,19.47
2019-04-21T02:40:21.527Z,19.90
2019-04-21T02:43:02.177Z,16.17
2019-04-21T02:45:23.605Z,19.23
2019-04-21T02:47:57.283Z,21.73
2019-04-21T02:53:09.555Z,15.73
2019-04-21T02:55:22.051Z,17.70
2019-04-21T03:00:30.298Z,16.17
2019-04-21T03:03:31.065Z,17.80
2019-04-21T03:06:27.064Z,19.67
2019-04-21T03:08:44.866Z,18.03
2019-04-21T03:11:08.915Z,18.57
2019-04-21T03:13:47.386Z,17.27
2019-04-21T03:16:20.186Z,17.43
2019-04-21T03:18:50.736Z,19.93
2019-04-21T03:26:22.510Z,23.17
2019-04-21T03:28:45.185Z,18.73
2019-04-21T03:31:35.996Z,15.93
2019-04-21T03:34:31.079Z,16.63
2019-04-21T03:36:39.846Z,17.63
2019-04-21T03:38:51.417Z,16.70
2019-04-21T03:41:22.338Z,15.77
2019-04-21T03:43:52.632Z,18.47
2019-04-21T03:53:55.870Z,16.77
2019-04-21T04:01:54.741Z,16.30
2019-04-21T04:07:39.703Z,15.10
2019-04-21T04:10:08.410Z,22.60
2019-04-21T04:12:18.977Z,15.80
2019-04-21T04:14:55.348Z,19.33
2019-04-21T04:17:25.688Z,17.13
2019-04-21T04:19:58.328Z,15.53
2019-04-21T04:22:45.975Z,16.13
2019-04-21T04:27:47.053Z,18.43
2019-04-21T04:30:07.549Z,17.83
2019-04-21T04:32:34.730Z,19.07
2019-04-21T04:35:10.115Z,19.73
2019-04-21T04:37:36.666Z,19.57
2019-04-21T04:43:11.731Z,20.30
2019-04-21T04:45:48.430Z,21.77
2019-04-21T04:50:49.466Z,24.07
2019-04-21T04:53:20.446Z,22.27
2019-04-21T04:58:56.387Z,18.03
2019-04-21T05:00:53.735Z,18.77
2019-04-21T05:03:26.342Z,18.23
2019-04-21T05:06:40.164Z,17.60
2019-04-21T05:09:02.894Z,20.47
2019-04-21T05:11:46.834Z,18.50
2019-04-21T05:14:03.034Z,23.20
2019-04-21T05:16:38.454Z,20.53
2019-04-21T05:19:04.251Z,17.80
2019-04-21T05:21:34.853Z,17.03
2019-04-21T05:23:48.443Z,17.87
2019-04-21T05:26:14.584Z,19.73
2019-04-21T05:28:44.572Z,14.93
2019-04-21T05:31:50.933Z,21.43
2019-04-21T05:34:18.810Z,18.47
2019-04-21T05:37:25.835Z,17.57
2019-04-21T05:40:00.697Z,19.80
2019-04-21T05:42:36.656Z,29.80
2019-04-21T05:45:16.031Z,41.20
2019-04-21T05:48:11.643Z,28.53
2019-04-21T05:50:29.306Z,19.90
2019-04-21T05:52:53.626Z,19.87
2019-04-21T05:55:36.093Z,20.87
2019-04-21T05:58:02.654Z,23.40
2019-04-21T06:01:00.734Z,18.37
2019-04-21T06:03:20.611Z,19.23
2019-04-21T06:05:53.418Z,25.13
2019-04-21T06:08:16.108Z,21.03
2019-04-21T06:10:47.674Z,17.13
2019-04-21T06:13:18.728Z,18.40
2019-04-21T06:15:50.017Z,19.67
2019-04-21T06:18:20.180Z,19.00
2019-04-21T06:20:54.717Z,18.10
2019-04-21T06:23:27.038Z,19.73
2019-04-21T06:28:28.702Z,20.93
2019-04-21T06:31:05.640Z,16.87
2019-04-21T06:33:27.486Z,15.97
2019-04-21T06:36:31.920Z,21.70
2019-04-21T06:39:08.698Z,19.77
2019-04-21T06:41:31.450Z,17.87
2019-04-21T06:44:03.006Z,19.73
2019-04-21T06:46:35.495Z,16.23
2019-04-21T06:49:02.687Z,22.40
2019-04-21T06:51:30.588Z,16.93
2019-04-21T06:56:41.220Z,22.33
2019-04-21T06:59:06.414Z,16.83
2019-04-21T07:04:18.573Z,18.43
2019-04-21T07:09:31.116Z,18.97
2019-04-21T07:11:41.261Z,17.87
2019-04-21T07:14:26.027Z,16.03
2019-04-21T07:19:21.813Z,16.10
2019-04-21T07:21:45.778Z,17.50
2019-04-21T07:24:21.404Z,18.00
2019-04-21T07:26:51.260Z,15.43
2019-04-21T07:29:25.801Z,14.20
2019-04-21T07:34:31.657Z,14.93
2019-04-21T07:39:22.557Z,18.53
2019-04-21T07:41:53.893Z,15.17
2019-04-21T07:44:18.133Z,16.63
2019-04-21T07:46:49.463Z,15.93
2019-04-21T07:49:58.662Z,18.27
2019-04-21T07:52:48.798Z,15.80
2019-04-21T07:57:37.599Z,19.87
2019-04-21T08:02:49.614Z,19.90
2019-04-21T08:05:33.969Z,16.73
2019-04-21T08:10:15.703Z,21.20
2019-04-21T08:12:47.759Z,19.57
2019-04-21T08:17:53.366Z,23.77
2019-04-21T08:20:25.851Z,14.63
2019-04-21T08:22:59.520Z,14.83
2019-04-21T08:25:30.698Z,16.73
2019-04-21T08:27:58.624Z,18.60
2019-04-21T08:30:35.050Z,14.67
2019-04-21T08:35:52.941Z,15.83
2019-04-21T08:38:01.061Z,19.10
2019-04-21T08:40:36.789Z,15.27
2019-04-21T08:43:01.205Z,15.53
2019-04-21T08:48:10.321Z,12.97
2019-04-21T08:50:38.948Z,12.83
2019-04-21T08:53:20.839Z,15.87
2019-04-21T08:56:10.279Z,15.23
2019-04-21T08:58:54.210Z,14.70
2019-04-21T09:04:12.806Z,11.53
2019-04-21T09:06:59.184Z,13.50
2019-04-21T09:09:18.095Z,15.67
2019-04-21T09:11:50.924Z,18.77
2019-04-21T09:14:17.835Z,14.17
2019-04-21T09:16:49.118Z,12.00
2019-04-21T09:19:24.366Z,16.27
2019-04-21T09:21:50.001Z,15.93
2019-04-21T09:24:21.797Z,13.80
2019-04-21T09:26:55.672Z,17.10
2019-04-21T09:29:16.016Z,14.33
2019-04-21T09:31:41.103Z,12.97
2019-04-21T09:34:08.925Z,15.33
2019-04-21T09:36:45.976Z,16.00
2019-04-21T09:39:18.044Z,14.20
2019-04-21T09:41:44.898Z,14.23
2019-04-21T09:44:22.069Z,16.33
2019-04-21T09:46:50.627Z,13.00
2019-04-21T09:49:21.751Z,13.07
2019-04-21T09:51:48.373Z,11.97
2019-04-21T09:54:24.850Z,14.83
2019-04-21T09:56:56.016Z,13.10
2019-04-21T09:59:28.225Z,12.20
2019-04-21T10:02:01.855Z,11.83
2019-04-21T10:04:23.206Z,11.10
2019-04-21T10:06:52.552Z,15.33
2019-04-21T10:09:21.933Z,15.10
2019-04-21T10:11:52.626Z,14.50
2019-04-21T10:14:22.324Z,14.43
2019-04-21T10:17:00.336Z,14.80
2019-04-21T10:19:31.630Z,11.83
2019-04-21T10:22:03.954Z,10.27
2019-04-21T10:24:34.002Z,11.63
2019-04-21T10:27:06.536Z,10.97
2019-04-21T10:29:39.760Z,13.80
2019-04-21T10:32:06.076Z,12.33
2019-04-21T10:34:36.770Z,9.47
2019-04-21T10:37:07.113Z,11.13
2019-04-21T10:39:37.712Z,11.30
2019-04-21T10:42:08.928Z,8.90
2019-04-21T10:44:38.877Z,8.57
2019-04-21T10:47:08.789Z,12.43
2019-04-21T10:49:38.239Z,12.03
2019-04-21T10:52:15.246Z,11.17
2019-04-21T10:55:09.709Z,11.57
2019-04-21T10:57:22.177Z,8.70
2019-04-21T10:59:54.167Z,8.73
2019-04-21T11:02:43.210Z,11.57
2019-04-21T11:05:14.460Z,7.63
2019-04-21T11:08:07.850Z,8.97
2019-04-21T11:10:24.052Z,8.60
2019-04-21T11:12:54.681Z,7.53
2019-04-21T11:15:25.257Z,7.00
2019-04-21T11:17:55.707Z,7.43
2019-04-21T11:20:26.824Z,11.40
2019-04-21T11:22:57.459Z,8.83
2019-04-21T11:25:28.201Z,11.97
2019-04-21T11:27:58.680Z,10.97
2019-04-21T11:30:29.667Z,13.13
2019-04-21T11:32:59.346Z,10.10
2019-04-21T11:35:28.867Z,9.33
2019-04-21T11:38:10.351Z,9.40
2019-04-21T11:40:33.961Z,9.70
2019-04-21T11:43:03.927Z,8.10
2019-04-21T11:45:34.935Z,12.70
2019-04-21T11:48:16.604Z,10.60
2019-04-21T11:50:46.685Z,8.77
2019-04-21T11:53:16.968Z,8.93
2019-04-21T11:55:48.467Z,9.77
2019-04-21T11:58:18.158Z,8.87
2019-04-21T12:00:52.069Z,11.23
2019-04-21T12:03:22.149Z,10.37
2019-04-21T12:05:53.114Z,8.47
2019-04-21T12:08:29.934Z,7.83
2019-04-21T12:10:53.879Z,6.70
2019-04-21T12:13:24.472Z,7.17
2019-04-21T12:15:54.798Z,7.30
2019-04-21T12:18:26.672Z,8.23
2019-04-21T12:20:55.668Z,9.10
2019-04-21T12:23:26.750Z,9.50
2019-04-21T12:25:57.012Z,7.40
2019-04-21T12:28:27.945Z,7.20
2019-04-21T12:30:57.964Z,8.97
2019-04-21T12:33:45.910Z,7.70
2019-04-21T12:36:15.849Z,7.63
2019-04-21T12:38:53.600Z,6.60
2019-04-21T12:41:16.642Z,6.27
2019-04-21T12:43:46.610Z,10.07
2019-04-21T12:46:16.018Z,8.10
2019-04-21T12:48:46.165Z,8.00
2019-04-21T12:51:15.891Z,6.80
2019-04-21T12:53:45.660Z,9.80
2019-04-21T12:56:15.732Z,10.23
2019-04-21T12:58:46.978Z,6.53
2019-04-21T13:01:16.807Z,8.03
2019-04-21T13:03:47.969Z,10.83
2019-04-21T13:06:19.312Z,11.07
2019-04-21T13:08:55.638Z,10.67
2019-04-21T13:11:21.273Z,6.00
2019-04-21T13:13:50.741Z,7.27
2019-04-21T13:16:21.199Z,8.37
2019-04-21T13:18:51.228Z,8.27
2019-04-21T13:21:20.691Z,8.47
2019-04-21T13:23:50.426Z,8.43
2019-04-21T13:26:29.602Z,11.10
2019-04-21T13:28:52.165Z,6.73
2019-04-21T13:31:22.366Z,8.57
2019-04-21T13:33:52.312Z,7.47
2019-04-21T13:36:21.706Z,9.93
2019-04-21T13:39:44.568Z,8.57
2019-04-21T13:41:59.890Z,7.47
2019-04-21T13:44:20.011Z,8.83
2019-04-21T13:46:52.348Z,6.47
2019-04-21T13:49:23.346Z,7.47
2019-04-21T13:51:54.143Z,7.07
2019-04-21T13:54:25.286Z,10.10
2019-04-21T13:56:56.406Z,6.37
2019-04-21T13:59:28.526Z,6.80
2019-04-21T14:01:58.481Z,8.67
2019-04-21T14:04:29.449Z,9.03
2019-04-21T14:06:58.891Z,7.70
2019-04-21T14:09:43.133Z,7.77
2019-04-21T14:12:01.354Z,8.63
2019-04-21T14:14:32.245Z,10.53
2019-04-21T14:17:03.913Z,8.07
2019-04-21T14:19:33.225Z,7.43
2019-04-21T14:22:03.454Z,8.67
2019-04-21T14:24:32.942Z,8.50
2019-04-21T14:27:02.714Z,10.47
2019-04-21T14:29:33.499Z,6.50
2019-04-21T14:32:04.257Z,10.77
2019-04-21T14:34:34.047Z,8.40
2019-04-21T14:37:04.705Z,10.17
2019-04-21T14:39:34.639Z,10.57
2019-04-21T14:42:06.357Z,9.67
2019-04-21T14:44:36.540Z,5.60
2019-04-21T14:47:35.044Z,5.83
2019-04-21T14:50:24.408Z,11.00
2019-04-21T14:53:13.829Z,6.67
2019-04-21T14:55:45.808Z,7.67
2019-04-21T14:58:15.331Z,7.43
2019-04-21T15:01:00.056Z,10.27
2019-04-21T15:03:29.976Z,7.23
2019-04-21T15:06:00.987Z,9.73
2019-04-21T15:08:31.309Z,6.43
2019-04-21T15:11:01.459Z,5.90
2019-04-21T15:13:32.284Z,8.73
2019-04-21T15:16:02.742Z,9.17
2019-04-21T15:18:32.775Z,6.67
2019-04-21T15:21:03.631Z,8.60
2019-04-21T15:23:33.948Z,11.80
2019-04-21T15:26:04.170Z,11.47
2019-04-21T15:28:35.617Z,7.07
2019-04-21T15:31:04.922Z,6.80
2019-04-21T15:33:34.971Z,7.73
2019-04-21T15:36:05.111Z,7.70
2019-04-21T15:38:35.810Z,9.10
2019-04-21T15:41:10.134Z,9.37
2019-04-21T15:43:36.821Z,7.40
2019-04-21T15:46:06.808Z,8.57
2019-04-21T15:48:37.052Z,10.20
2019-04-21T15:51:08.520Z,9.20
2019-04-21T15:53:38.072Z,14.67
2019-04-21T15:56:38.939Z,7.90
2019-04-21T15:59:16.715Z,10.03
2019-04-21T16:01:58.976Z,8.10
2019-04-21T16:04:28.714Z,6.20
2019-04-21T16:06:59.376Z,9.73
2019-04-21T16:09:30.673Z,6.30
2019-04-21T16:12:00.045Z,8.67
2019-04-21T16:14:29.654Z,8.50
2019-04-21T16:16:59.232Z,7.50
2019-04-21T16:19:29.359Z,11.63
2019-04-21T16:21:59.135Z,10.90
2019-04-21T16:24:28.450Z,9.20
2019-04-21T16:27:02.808Z,5.50
2019-04-21T16:29:29.229Z,5.90
2019-04-21T16:31:59.641Z,10.80
2019-04-21T16:34:38.946Z,9.87
2019-04-21T16:37:01.413Z,11.60
2019-04-21T16:39:31.536Z,8.27
2019-04-21T16:42:00.903Z,7.00
2019-04-21T16:44:31.294Z,7.20
2019-04-21T16:47:01.355Z,9.80
2019-04-21T16:49:31.757Z,7.07
2019-04-21T16:52:14.112Z,9.93
2019-04-21T16:54:46.119Z,9.50
2019-04-21T16:57:25.880Z,11.40
2019-04-21T17:00:00.202Z,8.03
2019-04-21T17:02:30.377Z,8.57
2019-04-21T17:05:00.472Z,7.53
2019-04-21T17:07:30.451Z,8.57
2019-04-21T17:10:00.057Z,10.43
2019-04-21T17:12:30.677Z,9.13
2019-04-21T17:15:15.465Z,12.77
2019-04-21T17:17:49.619Z,11.10
2019-04-21T17:20:17.646Z,8.47
2019-04-21T17:22:33.575Z,6.90
2019-04-21T17:25:04.312Z,10.43
2019-04-21T17:27:36.529Z,9.63
2019-04-21T17:30:06.442Z,7.87
2019-04-21T17:32:42.114Z,7.97
2019-04-21T17:35:08.118Z,5.97
2019-04-21T17:37:38.313Z,10.10
2019-04-21T17:40:09.008Z,7.93
2019-04-21T17:42:46.549Z,8.07
2019-04-21T17:45:10.936Z,9.70
2019-04-21T17:47:49.806Z,9.90
2019-04-21T17:50:41.283Z,9.23
2019-04-21T17:53:14.478Z,8.73
2019-04-21T17:55:52.976Z,9.90
2019-04-21T17:58:33.587Z,8.07
2019-04-21T18:03:46.287Z,8.70
2019-04-21T18:06:02.348Z,9.90
2019-04-21T18:08:40.779Z,10.77
2019-04-21T18:11:03.538Z,8.30
2019-04-21T18:13:26.648Z,11.07
2019-04-21T18:16:08.089Z,10.33
2019-04-21T18:18:26.635Z,6.63
2019-04-21T18:21:00.946Z,11.03
2019-04-21T18:23:52.144Z,10.13
2019-04-21T18:26:24.730Z,10.67
2019-04-21T18:28:42.756Z,13.00
2019-04-21T18:31:16.404Z,10.20
2019-04-21T18:33:59.036Z,11.20
2019-04-21T18:36:39.550Z,7.97
2019-04-21T18:39:46.419Z,13.20
2019-04-21T18:42:26.338Z,12.40
2019-04-21T18:45:34.125Z,12.57
2019-04-21T18:47:57.360Z,14.20
2019-04-21T18:50:42.062Z,8.93
2019-04-21T18:53:24.147Z,10.70
2019-04-21T18:55:47.256Z,9.33
2019-04-21T18:58:15.548Z,12.27
2019-04-21T19:00:45.828Z,14.20
2019-04-21T19:03:24.624Z,12.20
2019-04-21T19:05:54.041Z,9.10
2019-04-21T19:08:40.581Z,16.57
2019-04-21T19:11:10.476Z,12.87
2019-04-21T19:14:17.473Z,9.83
2019-04-21T19:16:38.721Z,9.83
2019-04-21T19:19:22.831Z,11.47
2019-04-21T19:21:24.467Z,10.27
2019-04-21T19:24:15.655Z,17.67
2019-04-21T19:26:37.498Z,10.70
2019-04-21T19:29:16.050Z,10.57
2019-04-21T19:31:39.780Z,9.93
2019-04-21T19:33:58.196Z,10.67
2019-04-21T19:36:21.418Z,17.10
2019-04-21T19:38:59.639Z,11.07
2019-04-21T19:41:38.225Z,9.90
2019-04-21T19:44:13.659Z,9.03
2019-04-21T19:46:38.026Z,10.63
2019-04-21T19:49:22.789Z,10.63
2019-04-21T19:51:40.545Z,15.07
2019-04-21T19:54:09.382Z,11.07
2019-04-21T19:56:30.271Z,18.93
2019-04-21T19:59:01.173Z,16.67
2019-04-21T20:01:31.759Z,18.63
2019-04-21T20:04:02.804Z,17.30
2019-04-21T20:06:45.592Z,17.10
2019-04-21T20:09:24.915Z,15.53
2019-04-21T20:11:55.886Z,23.83
2019-04-21T20:14:49.276Z,21.20
2019-04-21T20:16:56.704Z,19.77
2019-04-21T20:19:16.172Z,19.00
2019-04-21T20:21:49.095Z,20.70
2019-04-21T20:24:23.319Z,20.67
2019-04-21T20:27:00.042Z,22.13
2019-04-21T20:29:37.438Z,22.53
2019-04-21T20:32:16.346Z,21.53
2019-04-21T20:34:46.067Z,23.13
2019-04-21T20:37:19.127Z,20.73
2019-04-21T20:39:28.289Z,19.27
2019-04-21T20:42:12.695Z,20.83
2019-04-21T20:44:42.309Z,22.70
2019-04-21T20:47:13.380Z,17.47
2019-04-21T20:49:39.773Z,21.33
2019-04-21T20:52:17.232Z,19.10
2019-04-21T20:54:45.282Z,20.40
2019-04-21T20:57:18.890Z,17.57
2019-04-21T20:59:43.929Z,25.53
2019-04-21T21:02:20.036Z,19.83
2019-04-21T21:04:42.430Z,18.90
2019-04-21T21:07:36.520Z,20.33
2019-04-21T21:10:03.098Z,18.97
2019-04-21T21:14:55.525Z,19.37
2019-04-21T21:17:39.170Z,21.40
2019-04-21T21:20:00.872Z,17.83
2019-04-21T21:22:29.075Z,17.70
2019-04-21T21:25:03.524Z,16.30
2019-04-21T21:27:34.152Z,17.87
2019-04-21T21:30:05.875Z,16.87
2019-04-21T21:32:37.388Z,18.90
2019-04-21T21:35:09.278Z,17.97
2019-04-21T21:37:41.070Z,19.10
2019-04-21T21:40:11.403Z,15.43
2019-04-21T21:42:29.517Z,15.93
2019-04-21T21:45:04.195Z,15.90
2019-04-21T21:47:45.193Z,23.60
2019-04-21T21:50:07.711Z,18.60
2019-04-21T21:52:39.950Z,17.23
2019-04-21T21:54:59.521Z,16.03
2019-04-21T21:57:35.511Z,15.80
2019-04-21T22:00:04.674Z,22.30
2019-04-21T22:02:37.147Z,16.83
2019-04-21T22:05:09.436Z,19.17
2019-04-21T22:07:35.231Z,14.90
2019-04-21T22:10:06.344Z,18.83
2019-04-21T22:12:45.766Z,15.73
2019-04-21T22:15:12.637Z,12.77
2019-04-21T22:17:54.288Z,15.27
2019-04-21T22:20:32.085Z,17.27
2019-04-21T22:22:53.647Z,19.70
2019-04-21T22:25:20.435Z,15.53
2019-04-21T22:27:43.527Z,17.53
2019-04-21T22:30:14.737Z,15.50
2019-04-21T22:32:52.749Z,20.37
2019-04-21T22:35:28.582Z,20.33
2019-04-21T22:38:03.482Z,17.23
2019-04-21T22:40:39.652Z,16.20
2019-04-21T22:43:04.876Z,20.40
2019-04-21T22:45:27.244Z,18.97
2019-04-21T22:48:05.349Z,18.27
2019-04-21T22:50:32.761Z,17.33
2019-04-21T22:53:07.527Z,16.57
2019-04-21T22:55:35.173Z,21.80
2019-04-21T22:58:05.472Z,18.00
2019-04-21T23:00:40.062Z,32.30
2019-04-21T23:03:10.653Z,21.87
2019-04-21T23:05:44.496Z,19.30
2019-04-21T23:08:13.056Z,18.90
2019-04-21T23:10:49.665Z,20.90
2019-04-21T23:13:19.853Z,20.37
2019-04-21T23:15:51.225Z,14.97
2019-04-21T23:18:32.648Z,17.70
2019-04-21T23:21:06.215Z,16.17
2019-04-21T23:23:42.263Z,14.50
2019-04-21T23:26:09.139Z,17.10
2019-04-21T23:28:45.621Z,15.37
2019-04-21T23:31:11.082Z,13.80
2019-04-21T23:33:25.320Z,11.63
2019-04-21T23:36:03.750Z,12.70
2019-04-21T23:38:36.811Z,17.00
2019-04-21T23:41:05.268Z,13.83
2019-04-21T23:43:33.501Z,11.47
2019-04-21T23:46:14.838Z,14.47
2019-04-21T23:48:52.340Z,11.17
2019-04-21T23:51:15.975Z,12.50
2019-04-21T23:53:39.421Z,15.23
2019-04-21T23:56:09.098Z,12.60
2019-04-21T23:58:40.364Z,11.37
